createdAt,value
2018-04-12T00:00:18.807Z,13.4
2018-04-12T00:02:18.505Z,12.3
2018-04-12T00:04:19.213Z,13.4
2018-04-12T00:06:18.556Z,13.5
2018-04-12T00:08:19.254Z,14.2
2018-04-12T00:10:19.373Z,13.8
2018-04-12T00:12:19.067Z,14.3
2018-04-12T00:14:18.766Z,13
2018-04-12T00:16:18.632Z,12.9
2018-04-12T00:18:19.383Z,13.8
2018-04-12T00:20:19.111Z,13
2018-04-12T00:22:18.817Z,13.6
2018-04-12T00:24:18.521Z,13.8
2018-04-12T00:26:18.845Z,12.7
2018-04-12T00:28:18.541Z,13
2018-04-12T00:30:19.257Z,14.2
2018-04-12T00:32:18.952Z,14.2
2018-04-12T00:34:18.655Z,13.3
2018-04-12T00:36:19.101Z,13.7
2018-04-12T00:38:18.803Z,15.1
2018-04-12T00:40:18.911Z,13.8
2018-04-12T00:42:18.609Z,13.3
2018-04-12T00:44:19.308Z,13.1
2018-04-12T00:46:19.219Z,15.1
2018-04-12T00:48:18.936Z,14.5
2018-04-12T00:50:18.685Z,12.7
2018-04-12T00:52:19.393Z,14
2018-04-12T00:54:19.096Z,13.5
2018-04-12T00:56:18.474Z,13.6
2018-04-12T00:58:19.173Z,14.2
2018-04-12T01:00:18.885Z,14.3
2018-04-12T01:02:18.582Z,13.9
2018-04-12T01:04:19.284Z,14.5
2018-04-12T01:06:19.160Z,14.1
2018-04-12T01:08:18.860Z,13
2018-04-12T01:10:18.976Z,13.9
2018-04-12T01:12:18.681Z,13
2018-04-12T01:14:19.376Z,13.8
2018-04-12T01:16:18.687Z,14.6
2018-04-12T01:18:18.450Z,14
2018-04-12T01:20:19.181Z,15
2018-04-12T01:22:18.881Z,14.6
2018-04-12T01:24:18.565Z,13.8
2018-04-12T01:26:19.417Z,14.5
2018-04-12T01:28:19.115Z,13.8
2018-04-12T01:30:18.849Z,13.5
2018-04-12T01:32:18.547Z,15.4
2018-04-12T01:34:19.243Z,15
2018-04-12T01:36:18.563Z,13.7
2018-04-12T01:38:19.269Z,13.7
2018-04-12T01:40:19.427Z,15.4
2018-04-12T01:42:19.132Z,14.7
2018-04-12T01:44:18.836Z,14.9
2018-04-12T01:46:18.693Z,13
2018-04-12T01:48:19.397Z,13.5
2018-04-12T01:50:19.107Z,14.5
2018-04-12T01:52:18.804Z,13.6
2018-04-12T01:54:18.503Z,14.4
2018-04-12T01:56:18.935Z,14.3
2018-04-12T01:58:18.643Z,14.2
2018-04-12T02:00:19.374Z,14.6
2018-04-12T02:02:19.070Z,16
2018-04-12T02:04:18.764Z,15.5
2018-04-12T02:06:18.618Z,14.5
2018-04-12T02:08:19.312Z,14.5
2018-04-12T02:10:19.439Z,13.4
2018-04-12T02:12:19.135Z,13
2018-04-12T02:14:18.847Z,14
2018-04-12T02:16:19.227Z,13.9
2018-04-12T02:18:18.978Z,14.7
2018-04-12T02:20:18.693Z,15.8
2018-04-12T02:22:19.397Z,14.1
2018-04-12T02:24:19.107Z,12.5
2018-04-12T02:26:19.427Z,14.8
2018-04-12T02:28:19.127Z,13.1
2018-04-12T02:30:18.842Z,14.5
2018-04-12T02:32:18.543Z,13.8
2018-04-12T02:34:19.251Z,13.6
2018-04-12T02:36:19.238Z,13.6
2018-04-12T02:38:18.942Z,15
2018-04-12T02:40:19.045Z,14.1
2018-04-12T02:42:18.784Z,14.7
2018-04-12T02:44:18.557Z,15.4
2018-04-12T02:46:18.899Z,13.1
2018-04-12T02:48:18.596Z,14.6
2018-04-12T02:50:19.315Z,14.1
2018-04-12T02:52:19.026Z,14.9
2018-04-12T02:54:18.731Z,15.7
2018-04-12T02:56:19.066Z,14.8
2018-04-12T02:58:18.764Z,14.7
2018-04-12T03:00:18.493Z,14.3
2018-04-12T03:02:19.205Z,14.6
2018-04-12T03:04:18.898Z,12.8
2018-04-12T03:06:19.228Z,13.2
2018-04-12T03:08:18.943Z,14.7
2018-04-12T03:10:19.056Z,13.4
2018-04-12T03:12:18.756Z,14.2
2018-04-12T03:14:18.456Z,15.3
2018-04-12T03:16:19.303Z,14.4
2018-04-12T03:18:19.071Z,14.5
2018-04-12T03:20:18.783Z,13.6
2018-04-12T03:22:18.481Z,14.6
2018-04-12T03:24:19.175Z,15
2018-04-12T03:26:19.022Z,13.8
2018-04-12T03:28:18.725Z,14.4
2018-04-12T03:30:19.454Z,14.6
2018-04-12T03:32:19.161Z,15.3
2018-04-12T03:34:18.875Z,15
2018-04-12T03:36:19.200Z,15.1
2018-04-12T03:38:18.900Z,14.6
2018-04-12T03:40:19.011Z,14.8
2018-04-12T03:42:18.701Z,14.7
2018-04-12T03:44:19.402Z,13.6
2018-04-12T03:46:19.276Z,14.5
2018-04-12T03:48:18.967Z,14.8
2018-04-12T03:50:18.704Z,13.3
2018-04-12T03:52:18.496Z,13.1
2018-04-12T03:54:19.200Z,16.1
2018-04-12T03:56:18.538Z,13.6
2018-04-12T03:58:19.230Z,13.2
2018-04-12T04:00:18.947Z,12.9
2018-04-12T04:02:18.642Z,15
2018-04-12T04:04:19.343Z,14
2018-04-12T04:06:19.260Z,14.9
2018-04-12T04:08:18.961Z,13.6
2018-04-12T04:10:19.067Z,13.6
2018-04-12T04:12:18.759Z,13.5
2018-04-12T04:14:18.452Z,13.6
2018-04-12T04:16:18.775Z,13.8
2018-04-12T04:18:18.518Z,14.2
2018-04-12T04:20:19.246Z,14.7
2018-04-12T04:22:18.964Z,14.7
2018-04-12T04:24:18.660Z,15.8
2018-04-12T04:26:19.048Z,14.1
2018-04-12T04:28:18.745Z,13.2
2018-04-12T04:30:18.465Z,15.2
2018-04-12T04:32:19.159Z,15.1
2018-04-12T04:34:18.850Z,13.5
2018-04-12T04:36:19.251Z,14
2018-04-12T04:38:18.950Z,13.5
2018-04-12T04:40:19.049Z,14.6
2018-04-12T04:42:18.736Z,14
2018-04-12T04:44:19.430Z,13.8
2018-04-12T04:46:18.757Z,14.1
2018-04-12T04:48:18.493Z,13.7
2018-04-12T04:50:19.380Z,14
2018-04-12T04:52:19.084Z,13.9
2018-04-12T04:54:18.780Z,13.4
2018-04-12T04:56:19.107Z,13.4
2018-04-12T04:58:18.795Z,12.7
2018-04-12T05:00:18.528Z,13.2
2018-04-12T05:02:19.269Z,14.4
2018-04-12T05:04:18.966Z,14.6
2018-04-12T05:06:19.321Z,13.8
2018-04-12T05:08:19.024Z,15.9
2018-04-12T05:10:19.120Z,13
2018-04-12T05:12:18.828Z,14.6
2018-04-12T05:14:18.527Z,13.5
2018-04-12T05:16:18.842Z,13.7
2018-04-12T05:18:18.600Z,13.6
2018-04-12T05:20:19.310Z,15.3
2018-04-12T05:22:18.999Z,14.2
2018-04-12T05:24:18.716Z,15.8
2018-04-12T05:26:19.095Z,14.6
2018-04-12T05:28:18.789Z,13.5
2018-04-12T05:30:18.502Z,13.5
2018-04-12T05:32:19.197Z,13.2
2018-04-12T05:34:18.884Z,13.9
2018-04-12T05:36:19.216Z,14.2
2018-04-12T05:38:18.907Z,13
2018-04-12T05:40:19.016Z,14.7
2018-04-12T05:42:18.728Z,14
2018-04-12T05:44:19.430Z,14.3
2018-04-12T05:46:18.798Z,13.1
2018-04-12T05:48:18.550Z,13.5
2018-04-12T05:50:19.272Z,13.4
2018-04-12T05:52:18.964Z,13.6
2018-04-12T05:54:18.661Z,13.4
2018-04-12T05:56:18.991Z,13.1
2018-04-12T05:58:18.685Z,13.8
2018-04-12T06:00:19.418Z,12.4
2018-04-12T06:02:19.110Z,13.2
2018-04-12T06:04:18.795Z,12.9
2018-04-12T06:06:19.171Z,11.7
2018-04-12T06:08:18.867Z,12.5
2018-04-12T06:10:18.968Z,12.7
2018-04-12T06:12:18.672Z,12.4
2018-04-12T06:14:19.364Z,13.1
2018-04-12T06:16:18.735Z,12.7
2018-04-12T06:18:18.498Z,13.1
2018-04-12T06:20:19.220Z,12.3
2018-04-12T06:22:18.918Z,11.9
2018-04-12T06:24:18.617Z,11.8
2018-04-12T06:26:18.844Z,13.1
2018-04-12T06:28:18.625Z,12
2018-04-12T06:30:19.416Z,11.8
2018-04-12T06:32:19.185Z,12.6
2018-04-12T06:34:18.992Z,11.4
2018-04-12T06:36:19.421Z,11.6
2018-04-12T06:38:19.204Z,12.5
2018-04-12T06:40:19.595Z,12.4
2018-04-12T06:42:19.389Z,11.5
2018-04-12T06:44:19.178Z,12.4
2018-04-12T06:46:18.639Z,12.3
2018-04-12T06:48:19.414Z,11.4
2018-04-12T06:50:19.217Z,11.8
2018-04-12T06:52:19.025Z,12.7
2018-04-12T06:54:18.854Z,11.6
2018-04-12T06:56:19.153Z,11.4
2018-04-12T06:58:18.948Z,10.3
2018-04-12T07:00:18.735Z,10.9
2018-04-12T07:02:18.546Z,10.7
2018-04-12T07:04:19.334Z,11.1
2018-04-12T07:06:18.528Z,10
2018-04-12T07:08:19.315Z,10.9
2018-04-12T07:10:18.646Z,10.9
2018-04-12T07:12:19.447Z,9.3
2018-04-12T07:14:19.242Z,10.5
2018-04-12T07:16:18.818Z,11
2018-04-12T07:18:18.675Z,10.8
2018-04-12T07:20:19.472Z,11.3
2018-04-12T07:22:19.291Z,10.9
2018-04-12T07:24:19.083Z,10.2
2018-04-12T07:26:18.697Z,10.9
2018-04-12T07:28:19.493Z,10.3
2018-04-12T07:30:19.348Z,11
2018-04-12T07:32:19.184Z,10.8
2018-04-12T07:34:19.030Z,10.2
2018-04-12T07:36:18.814Z,11
2018-04-12T07:38:18.611Z,9.7
2018-04-12T07:40:18.911Z,12.3
2018-04-12T07:42:18.709Z,10.4
2018-04-12T07:44:19.493Z,9.9
2018-04-12T07:46:19.058Z,9.6
2018-04-12T07:48:18.886Z,9.7
2018-04-12T07:50:18.749Z,9.5
2018-04-12T07:52:18.590Z,9.8
2018-04-12T07:54:19.421Z,9.3
2018-04-12T07:56:18.990Z,9.8
2018-04-12T07:58:18.787Z,10
2018-04-12T08:00:18.628Z,10.3
2018-04-12T08:02:19.440Z,11.2
2018-04-12T08:04:19.297Z,10
2018-04-12T08:06:19.399Z,9.6
2018-04-12T08:08:19.182Z,9.2
2018-04-12T08:10:19.468Z,9.3
2018-04-12T08:12:19.265Z,8.9
2018-04-12T08:14:19.074Z,8.8
2018-04-12T08:16:18.689Z,10.3
2018-04-12T08:18:18.719Z,8.9
2018-04-12T08:20:19.540Z,10.2
2018-04-12T08:22:19.339Z,8.3
2018-04-12T08:24:19.170Z,8.7
2018-04-12T08:26:18.769Z,7.9
2018-04-12T08:28:18.584Z,9.5
2018-04-12T08:30:19.386Z,8.8
2018-04-12T08:32:19.200Z,8.7
2018-04-12T08:34:19.029Z,9.5
2018-04-12T08:36:19.369Z,8.6
2018-04-12T08:38:19.172Z,9.6
2018-04-12T08:40:19.486Z,8.1
2018-04-12T08:42:19.305Z,8.1
2018-04-12T08:44:19.099Z,8.2
2018-04-12T08:46:18.793Z,9.5
2018-04-12T08:48:18.582Z,7.9
2018-04-12T08:50:19.412Z,6.7
2018-04-12T08:52:19.204Z,8.1
2018-04-12T08:54:19.023Z,7.9
2018-04-12T08:56:18.593Z,8.2
2018-04-12T08:58:19.398Z,7.3
2018-04-12T09:00:19.241Z,8
2018-04-12T09:02:19.027Z,7.5
2018-04-12T09:04:18.803Z,7.8
2018-04-12T09:06:18.970Z,7.9
2018-04-12T09:08:18.767Z,8
2018-04-12T09:10:19.024Z,6.9
2018-04-12T09:12:18.809Z,6.7
2018-04-12T09:14:18.612Z,7.6
2018-04-12T09:16:18.707Z,6.6
2018-04-12T09:18:18.582Z,7.2
2018-04-12T09:20:19.390Z,6.9
2018-04-12T09:22:19.195Z,6.7
2018-04-12T09:24:19.031Z,8.3
2018-04-12T09:26:19.329Z,7.9
2018-04-12T09:28:19.128Z,6.5
2018-04-12T09:30:18.938Z,6.5
2018-04-12T09:32:18.749Z,6.2
2018-04-12T09:34:18.550Z,6.6
2018-04-12T09:36:17.745Z,6.7
2018-04-12T09:38:18.544Z,6.8
2018-04-12T09:40:18.802Z,5.9
2018-04-12T09:42:17.604Z,6.5
2018-04-12T09:44:19.408Z,5.6
2018-04-12T09:46:19.576Z,6.6
2018-04-12T09:48:18.482Z,6.3
2018-04-12T09:50:19.340Z,6.2
2018-04-12T09:52:19.154Z,6
2018-04-12T09:54:18.981Z,5.4
2018-04-12T09:56:17.792Z,5.1
2018-04-12T09:58:17.591Z,5
2018-04-12T10:00:18.397Z,4.5
2018-04-12T10:02:19.232Z,5.4
2018-04-12T10:04:18.044Z,6.1
2018-04-12T10:06:18.243Z,4.8
2018-04-12T10:08:19.055Z,4.6
2018-04-12T10:10:18.355Z,4
2018-04-12T10:12:18.171Z,5
2018-04-12T10:14:17.967Z,4
2018-04-12T10:16:18.318Z,4
2018-04-12T10:18:18.226Z,4.7
2018-04-12T10:20:18.104Z,4.5
2018-04-12T10:22:17.934Z,3.8
2018-04-12T10:24:17.741Z,4.1
2018-04-12T10:26:18.347Z,4.9
2018-04-12T10:28:18.185Z,4.7
2018-04-12T10:30:18.009Z,3.9
2018-04-12T10:32:17.805Z,4.2
2018-04-12T10:34:17.614Z,3.3
2018-04-12T10:36:18.271Z,3.8
2018-04-12T10:38:18.094Z,4.6
2018-04-12T10:40:19.437Z,4.3
2018-04-12T10:42:18.264Z,4.1
2018-04-12T10:44:18.150Z,4
2018-04-12T10:46:17.777Z,4.1
2018-04-12T10:48:17.611Z,4.1
2018-04-12T10:50:18.417Z,3.8
2018-04-12T10:52:18.213Z,3.8
2018-04-12T10:54:18.030Z,3.6
2018-04-12T10:56:17.709Z,3.6
2018-04-12T10:58:18.511Z,4.2
2018-04-12T11:00:18.304Z,4.4
2018-04-12T11:02:18.114Z,2.9
2018-04-12T11:04:17.937Z,4.5
2018-04-12T11:06:17.666Z,3.3
2018-04-12T11:08:18.495Z,3
2018-04-12T11:10:17.788Z,3.9
2018-04-12T11:12:17.654Z,3.8
2018-04-12T11:14:17.535Z,3.5
2018-04-12T11:16:17.664Z,2.9
2018-04-12T11:18:17.640Z,3.3
2018-04-12T11:20:18.536Z,2.6
2018-04-12T11:22:18.372Z,3.4
2018-04-12T11:24:18.205Z,2.9
2018-04-12T11:26:18.423Z,3
2018-04-12T11:28:18.228Z,3.6
2018-04-12T11:30:18.094Z,3.3
2018-04-12T11:32:17.917Z,3.4
2018-04-12T11:34:17.774Z,3.6
2018-04-12T11:36:18.152Z,2.3
2018-04-12T11:38:17.984Z,2.7
2018-04-12T11:40:18.296Z,3.3
2018-04-12T11:42:18.115Z,2.6
2018-04-12T11:44:17.940Z,1.7
2018-04-12T11:46:17.595Z,2
2018-04-12T11:48:18.421Z,1.9
2018-04-12T11:50:18.340Z,1.6
2018-04-12T11:52:18.249Z,2.2
2018-04-12T11:54:18.080Z,1.7
2018-04-12T11:56:18.261Z,1.7
2018-04-12T11:58:18.090Z,2
2018-04-12T12:00:17.911Z,2.2
2018-04-12T12:02:17.738Z,2.7
2018-04-12T12:04:17.573Z,2.9
2018-04-12T12:06:17.732Z,2
2018-04-12T12:08:17.562Z,2.5
2018-04-12T12:10:17.862Z,2.8
2018-04-12T12:12:17.686Z,2.2
2018-04-12T12:14:18.508Z,2
2018-04-12T12:16:17.691Z,2.6
2018-04-12T12:18:17.616Z,1.7
2018-04-12T12:20:18.439Z,2.1
2018-04-12T12:22:18.296Z,2.3
2018-04-12T12:24:18.133Z,2.3
2018-04-12T12:26:17.862Z,2.3
2018-04-12T12:28:17.711Z,2.8
2018-04-12T12:30:18.526Z,1.8
2018-04-12T12:32:18.350Z,2.7
2018-04-12T12:34:18.163Z,2.1
2018-04-12T12:36:17.824Z,1.7
2018-04-12T12:38:17.634Z,2.5
2018-04-12T12:40:17.962Z,2.2
2018-04-12T12:42:17.791Z,1.7
2018-04-12T12:44:17.640Z,2.3
2018-04-12T12:46:17.904Z,1.8
2018-04-12T12:48:17.742Z,1.8
2018-04-12T12:50:17.603Z,2.3
2018-04-12T12:52:18.452Z,1.9
2018-04-12T12:54:18.301Z,2.5
2018-04-12T12:56:18.067Z,2.3
2018-04-12T12:58:17.903Z,1.9
2018-04-12T13:00:17.736Z,2.2
2018-04-12T13:02:17.592Z,2.2
2018-04-12T13:04:18.430Z,2.3
2018-04-12T13:06:18.019Z,2
2018-04-12T13:08:17.840Z,3.1
2018-04-12T13:10:18.152Z,2.6
2018-04-12T13:12:17.982Z,1.7
2018-04-12T13:14:17.806Z,2.1
2018-04-12T13:16:17.965Z,1.8
2018-04-12T13:18:17.878Z,2.2
2018-04-12T13:20:17.728Z,1.6
2018-04-12T13:22:17.576Z,1.5
2018-04-12T13:24:18.421Z,2.1
2018-04-12T13:26:18.076Z,3.3
2018-04-12T13:28:17.902Z,1.8
2018-04-12T13:30:17.867Z,2
2018-04-12T13:32:17.702Z,1.5
2018-04-12T13:34:18.544Z,2.4
2018-04-12T13:36:18.442Z,2.1
2018-04-12T13:38:18.303Z,1.8
2018-04-12T13:40:17.631Z,1.6
2018-04-12T13:42:18.489Z,2.1
2018-04-12T13:44:18.319Z,3.2
2018-04-12T13:46:18.544Z,2.5
2018-04-12T13:48:18.405Z,2.3
2018-04-12T13:50:18.284Z,1.6
2018-04-12T13:52:18.146Z,1.7
2018-04-12T13:54:17.971Z,1.5
2018-04-12T13:56:17.645Z,1.5
2018-04-12T13:58:18.523Z,1.4
2018-04-12T14:00:18.436Z,2.3
2018-04-12T14:02:18.290Z,1.1
2018-04-12T14:04:18.143Z,1.4
2018-04-12T14:06:17.834Z,1.9
2018-04-12T14:08:17.977Z,2.4
2018-04-12T14:10:18.318Z,1.9
2018-04-12T14:12:18.168Z,1.3
2018-04-12T14:14:18.072Z,2
2018-04-12T14:16:17.750Z,1.5
2018-04-12T14:18:17.679Z,1.9
2018-04-12T14:20:18.531Z,1.5
2018-04-12T14:22:18.373Z,1.4
2018-04-12T14:24:18.256Z,2.2
2018-04-12T14:26:18.507Z,1.6
2018-04-12T14:28:18.352Z,1.6
2018-04-12T14:30:18.225Z,1.8
2018-04-12T14:32:18.132Z,1.7
2018-04-12T14:34:17.974Z,3.1
2018-04-12T14:36:17.718Z,2.6
2018-04-12T14:38:17.779Z,2
2018-04-12T14:40:18.147Z,2
2018-04-12T14:42:18.010Z,2
2018-04-12T14:44:17.847Z,1.7
2018-04-12T14:46:18.224Z,1.1
2018-04-12T14:48:18.086Z,1.7
2018-04-12T14:50:17.975Z,1.7
2018-04-12T14:52:17.828Z,1.3
2018-04-12T14:54:19.151Z,2.6
2018-04-12T14:56:18.147Z,1.7
2018-04-12T14:58:17.999Z,1.8
2018-04-12T15:00:17.850Z,2
2018-04-12T15:02:17.682Z,1.8
2018-04-12T15:04:18.525Z,1.6
2018-04-12T15:06:18.346Z,1.8
2018-04-12T15:08:18.256Z,1.4
2018-04-12T15:10:18.585Z,2.5
2018-04-12T15:12:18.445Z,2
2018-04-12T15:14:18.285Z,2
2018-04-12T15:16:18.559Z,2
2018-04-12T15:18:18.472Z,1.6
2018-04-12T15:20:18.332Z,1.3
2018-04-12T15:22:18.198Z,1.7
2018-04-12T15:24:18.047Z,2.4
2018-04-12T15:26:17.690Z,1.6
2018-04-12T15:28:18.559Z,2.1
2018-04-12T15:30:18.394Z,2.2
2018-04-12T15:32:18.235Z,2.1
2018-04-12T15:34:18.102Z,2.1
2018-04-12T15:36:17.580Z,1.7
2018-04-12T15:38:18.388Z,1.5
2018-04-12T15:40:17.832Z,1.8
2018-04-12T15:42:17.715Z,2
2018-04-12T15:44:17.541Z,2.1
2018-04-12T15:46:18.183Z,2.4
2018-04-12T15:48:18.057Z,1.5
2018-04-12T15:50:17.897Z,2.3
2018-04-12T15:52:17.736Z,2
2018-04-12T15:54:17.582Z,2
2018-04-12T15:56:17.770Z,2.1
2018-04-12T15:58:17.605Z,2.6
2018-04-12T16:00:18.442Z,2.3
2018-04-12T16:02:18.275Z,2.8
2018-04-12T16:04:18.113Z,1.4
2018-04-12T16:06:17.740Z,1.7
2018-04-12T16:08:17.575Z,2.1
2018-04-12T16:10:17.879Z,3.4
2018-04-12T16:12:17.705Z,1.8
2018-04-12T16:14:18.541Z,1
2018-04-12T16:16:17.908Z,2.5
2018-04-12T16:18:17.812Z,1.9
2018-04-12T16:20:17.818Z,2.7
2018-04-12T16:22:17.651Z,2.3
2018-04-12T16:24:18.459Z,1.3
2018-04-12T16:26:17.610Z,1.6
2018-04-12T16:28:18.427Z,2.4
2018-04-12T16:30:18.281Z,2.2
2018-04-12T16:32:18.117Z,3.7
2018-04-12T16:34:17.956Z,1.3
2018-04-12T16:36:18.181Z,2
2018-04-12T16:38:18.001Z,1.6
2018-04-12T16:40:18.397Z,2.4
2018-04-12T16:42:18.212Z,2.2
2018-04-12T16:44:18.037Z,3.1
2018-04-12T16:46:17.747Z,3.6
2018-04-12T16:48:17.559Z,3.9
2018-04-12T16:50:18.397Z,2.6
2018-04-12T16:52:18.084Z,3.3
2018-04-12T16:54:17.932Z,3
2018-04-12T16:56:18.081Z,3.4
2018-04-12T16:58:17.893Z,3.7
2018-04-12T17:00:17.752Z,3.6
2018-04-12T17:02:17.584Z,4.1
2018-04-12T17:04:18.396Z,3.3
2018-04-12T17:06:17.610Z,4.2
2018-04-12T17:08:18.437Z,4
2018-04-12T17:10:17.922Z,4.4
2018-04-12T17:12:17.718Z,4.6
2018-04-12T17:14:18.530Z,4.4
2018-04-12T17:16:18.234Z,4.8
2018-04-12T17:18:18.154Z,4.9
2018-04-12T17:20:18.012Z,5.2
2018-04-12T17:22:17.829Z,4.1
2018-04-12T17:24:17.625Z,4.7
2018-04-12T17:26:18.229Z,5.5
2018-04-12T17:28:18.043Z,5.2
2018-04-12T17:30:17.915Z,6
2018-04-12T17:32:17.728Z,4.6
2018-04-12T17:34:17.556Z,5.3
2018-04-12T17:36:17.670Z,4.8
2018-04-12T17:38:18.450Z,5.4
2018-04-12T17:40:17.720Z,5.5
2018-04-12T17:42:17.554Z,4.6
2018-04-12T17:44:18.383Z,4.5
2018-04-12T17:46:17.644Z,5.2
2018-04-12T17:48:18.495Z,4.2
2018-04-12T17:50:18.398Z,5.3
2018-04-12T17:52:18.197Z,5
2018-04-12T17:54:18.018Z,5.6
2018-04-12T17:56:17.711Z,5.5
2018-04-12T17:58:18.539Z,5.8
2018-04-12T18:00:18.368Z,5.4
2018-04-12T18:02:18.210Z,5.4
2018-04-12T18:04:18.029Z,6.4
2018-04-12T18:06:18.380Z,5.1
2018-04-12T18:08:18.191Z,6.2
2018-04-12T18:10:18.513Z,6.3
2018-04-12T18:12:18.317Z,6.4
2018-04-12T18:14:18.148Z,7.2
2018-04-12T18:16:18.362Z,6.6
2018-04-12T18:18:18.261Z,6.9
2018-04-12T18:20:18.159Z,6.1
2018-04-12T18:22:17.990Z,5.9
2018-04-12T18:24:17.805Z,7.1
2018-04-12T18:26:18.066Z,6.5
2018-04-12T18:28:17.902Z,6.9
2018-04-12T18:30:17.805Z,7.4
2018-04-12T18:32:17.629Z,7.5
2018-04-12T18:34:18.463Z,7.7
2018-04-12T18:36:18.075Z,7.2
2018-04-12T18:38:17.907Z,8.2
2018-04-12T18:40:18.186Z,9.3
2018-04-12T18:42:17.996Z,8.8
2018-04-12T18:44:17.808Z,7.2
2018-04-12T18:46:18.467Z,7
2018-04-12T18:48:18.357Z,7.8
2018-04-12T18:50:18.213Z,7.4
2018-04-12T18:52:18.036Z,8.3
2018-04-12T18:54:17.874Z,8.4
2018-04-12T18:56:17.659Z,7.5
2018-04-12T18:58:18.472Z,8.6
2018-04-12T19:00:18.292Z,7.9
2018-04-12T19:02:18.105Z,8.8
2018-04-12T19:04:17.903Z,9.1
2018-04-12T19:06:17.723Z,7.9
2018-04-12T19:08:17.578Z,8.6
2018-04-12T19:10:17.891Z,9.1
2018-04-12T19:12:17.685Z,8.1
2018-04-12T19:14:18.503Z,8.9
2018-04-12T19:16:18.132Z,9
2018-04-12T19:18:18.049Z,9.7
2018-04-12T19:20:17.911Z,9
2018-04-12T19:22:17.765Z,9.4
2018-04-12T19:24:17.592Z,9.5
2018-04-12T19:26:18.239Z,9.3
2018-04-12T19:28:18.065Z,9
2018-04-12T19:30:17.998Z,10.1
2018-04-12T19:32:17.815Z,10.3
2018-04-12T19:34:17.639Z,10.1
2018-04-12T19:36:19.000Z,10.2
2018-04-12T19:38:17.794Z,8.7
2018-04-12T19:40:19.072Z,9.4
2018-04-12T19:42:17.872Z,9.5
2018-04-12T19:44:17.689Z,10.3
2018-04-12T19:46:18.339Z,11
2018-04-12T19:48:19.138Z,10.8
2018-04-12T19:50:17.948Z,9.9
2018-04-12T19:52:17.780Z,9.8
2018-04-12T19:54:17.596Z,11.5
2018-04-12T19:56:17.776Z,10.1
2018-04-12T19:58:18.587Z,10
2018-04-12T20:00:19.458Z,10.2
2018-04-12T20:02:18.288Z,10.7
2018-04-12T20:04:18.098Z,9.6
2018-04-12T20:06:17.796Z,9.5
2018-04-12T20:08:18.620Z,11.6
2018-04-12T20:10:17.920Z,10.2
2018-04-12T20:12:17.720Z,11.7
2018-04-12T20:14:18.533Z,9.7
2018-04-12T20:16:17.784Z,11.6
2018-04-12T20:18:18.689Z,10.4
2018-04-12T20:20:18.478Z,10.9
2018-04-12T20:22:19.286Z,10.7
2018-04-12T20:24:18.136Z,10.1
2018-04-12T20:26:17.590Z,10.4
2018-04-12T20:28:18.417Z,12.2
2018-04-12T20:30:19.245Z,10.3
2018-04-12T20:32:18.061Z,11.9
2018-04-12T20:34:18.883Z,11.1
2018-04-12T20:36:19.135Z,11.5
2018-04-12T20:38:19.005Z,12.1
2018-04-12T20:40:18.283Z,11
2018-04-12T20:42:19.091Z,12.1
2018-04-12T20:44:18.906Z,11.6
2018-04-12T20:46:18.065Z,11.3
2018-04-12T20:48:17.894Z,11.9
2018-04-12T20:50:17.728Z,13.4
2018-04-12T20:52:17.568Z,12.5
2018-04-12T20:54:19.375Z,11.7
2018-04-12T20:56:17.577Z,13.5
2018-04-12T20:58:19.384Z,13.8
2018-04-12T21:00:19.200Z,13
2018-04-12T21:02:18.012Z,12.8
2018-04-12T21:04:18.818Z,12.6
2018-04-12T21:06:19.406Z,13.9
2018-04-12T21:08:18.278Z,12.5
2018-04-12T21:10:18.788Z,12.9
2018-04-12T21:12:18.595Z,13
2018-04-12T21:14:18.404Z,14.1
2018-04-12T21:16:17.761Z,12.9
2018-04-12T21:18:18.625Z,14
2018-04-12T21:20:19.443Z,11.9
2018-04-12T21:22:18.241Z,12
2018-04-12T21:24:19.037Z,12.6
2018-04-12T21:26:17.750Z,12.5
2018-04-12T21:28:18.585Z,12.6
2018-04-12T21:30:19.421Z,14.1
2018-04-12T21:32:18.245Z,14.3
2018-04-12T21:34:19.077Z,13.6
2018-04-12T21:36:17.652Z,14.3
2018-04-12T21:38:19.457Z,12.8
2018-04-12T21:40:18.772Z,13.7
2018-04-12T21:42:17.607Z,13.8
2018-04-12T21:44:19.433Z,12.6
2018-04-12T21:46:19.014Z,13.1
2018-04-12T21:48:18.795Z,15.1
2018-04-12T21:50:18.574Z,13.2
2018-04-12T21:52:19.344Z,14.4
2018-04-12T21:54:18.130Z,14.1
2018-04-12T21:56:18.676Z,15.3
2018-04-12T21:58:18.454Z,14.7
2018-04-12T22:00:18.233Z,13.8
2018-04-12T22:02:19.009Z,13.6
2018-04-12T22:04:18.783Z,14.8
2018-04-12T22:06:19.332Z,14.8
2018-04-12T22:08:18.155Z,13.3
2018-04-12T22:10:19.399Z,14.7
2018-04-12T22:12:19.159Z,13.4
2018-04-12T22:14:18.921Z,13.4
2018-04-12T22:16:19.439Z,14.4
2018-04-12T22:18:19.280Z,14.3
2018-04-12T22:20:19.074Z,13.8
2018-04-12T22:22:18.836Z,14.3
2018-04-12T22:24:18.596Z,16.1
2018-04-12T22:26:18.615Z,14.9
2018-04-12T22:28:19.403Z,14.3
2018-04-12T22:30:19.193Z,14.3
2018-04-12T22:32:18.976Z,14.9
2018-04-12T22:34:18.763Z,13.2
2018-04-12T22:36:18.933Z,15.2
2018-04-12T22:38:18.713Z,14.2
2018-04-12T22:40:18.958Z,13.6
2018-04-12T22:42:18.735Z,15.5
2018-04-12T22:44:19.521Z,15.3
2018-04-12T22:46:17.588Z,15.1
2018-04-12T22:48:18.352Z,15.7
2018-04-12T22:50:19.152Z,14.7
2018-04-12T22:52:18.930Z,14.5
2018-04-12T22:54:18.707Z,14.2
2018-04-12T22:56:19.216Z,13.2
2018-04-12T22:58:18.998Z,14.8
2018-04-12T23:00:18.816Z,14.7
2018-04-12T23:02:18.583Z,14.7
2018-04-12T23:04:19.349Z,14.9
2018-04-12T23:06:19.446Z,14.9
2018-04-12T23:08:19.228Z,15
2018-04-12T23:10:19.472Z,14.2
2018-04-12T23:12:19.246Z,14.6
2018-04-12T23:14:19.036Z,15.3
2018-04-12T23:16:19.236Z,13.1
2018-04-12T23:18:19.078Z,14.4
2018-04-12T23:20:18.878Z,15.1
2018-04-12T23:22:18.645Z,15.5
2018-04-12T23:24:19.419Z,14.3
2018-04-12T23:26:19.469Z,14
2018-04-12T23:28:19.244Z,13.5
2018-04-12T23:30:19.042Z,13.8
2018-04-12T23:32:18.805Z,15.1
2018-04-12T23:34:18.569Z,13.8
2018-04-12T23:36:19.254Z,13.5
2018-04-12T23:38:19.053Z,13.8
2018-04-12T23:40:19.278Z,13.8
2018-04-12T23:42:19.050Z,14.1
2018-04-12T23:44:18.822Z,14.2
2018-04-12T23:46:18.859Z,14.8
2018-04-12T23:48:18.643Z,14.5
2018-04-12T23:50:19.453Z,14.6
2018-04-12T23:52:19.211Z,13
2018-04-12T23:54:18.982Z,13.6
2018-04-12T23:56:19.026Z,13.8
2018-04-12T23:58:18.788Z,14.5
